sensor_id;sensor_type;location;lat;lon;timestamp;pressure;altitude;pressure_sealevel;temperature;humidity
45255;BME280;30989;52.078;21.014;2023-04-24T00:00:20;166891.56;;;11.95;62.31
45255;BME280;30989;52.078;21.014;2023-04-24T00:02:46;166882.19;;;11.91;62.26
45255;BME280;30989;52.078;21.014;2023-04-24T00:05:16;166878.16;;;11.90;62.71
45255;BME280;30989;52.078;21.014;2023-04-24T00:07:43;166858.06;;;11.82;62.42
45255;BME280;30989;52.078;21.014;2023-04-24T00:10:09;166850.00;;;11.79;63.13
45255;BME280;30989;52.078;21.014;2023-04-24T00:12:35;166829.84;;;11.72;63.09
45255;BME280;30989;52.078;21.014;2023-04-24T00:15:01;166816.44;;;11.67;64.06
45255;BME280;30989;52.078;21.014;2023-04-24T00:17:27;166795.00;;;11.58;63.74
45255;BME280;30989;52.078;21.014;2023-04-24T00:19:53;166789.66;;;11.56;63.75
45255;BME280;30989;52.078;21.014;2023-04-24T00:22:27;166764.19;;;11.47;63.86
45255;BME280;30989;52.078;21.014;2023-04-24T00:24:53;166770.88;;;11.49;63.78
45255;BME280;30989;52.078;21.014;2023-04-24T00:27:18;166761.50;;;11.46;64.20
45255;BME280;30989;52.078;21.014;2023-04-24T00:29:44;166749.44;;;11.41;64.45
45255;BME280;30989;52.078;21.014;2023-04-24T00:32:10;166719.97;;;11.30;65.27
45255;BME280;30989;52.078;21.014;2023-04-24T00:34:35;166725.31;;;11.32;65.47
45255;BME280;30989;52.078;21.014;2023-04-24T00:37:01;166726.66;;;11.33;65.14
45255;BME280;30989;52.078;21.014;2023-04-24T00:39:26;166729.34;;;11.34;65.57
45255;BME280;30989;52.078;21.014;2023-04-24T00:41:52;166713.28;;;11.27;65.08
45255;BME280;30989;52.078;21.014;2023-04-24T00:44:18;166723.97;;;11.32;65.03
45255;BME280;30989;52.078;21.014;2023-04-24T00:46:44;166719.97;;;11.30;65.41
45255;BME280;30989;52.078;21.014;2023-04-24T00:49:11;166703.88;;;11.24;65.72
45255;BME280;30989;52.078;21.014;2023-04-24T00:51:38;166729.34;;;11.34;65.48
45255;BME280;30989;52.078;21.014;2023-04-24T00:54:03;166740.06;;;11.38;65.54
45255;BME280;30989;52.078;21.014;2023-04-24T00:56:29;166748.09;;;11.41;65.40
45255;BME280;30989;52.078;21.014;2023-04-24T00:58:55;166753.47;;;11.43;65.46
45255;BME280;30989;52.078;21.014;2023-04-24T01:01:21;166770.88;;;11.49;65.66
45255;BME280;30989;52.078;21.014;2023-04-24T01:03:49;166788.31;;;11.56;66.17
45255;BME280;30989;52.078;21.014;2023-04-24T01:06:16;166799.03;;;11.60;66.16
45255;BME280;30989;52.078;21.014;2023-04-24T01:08:43;166809.75;;;11.64;66.37
45255;BME280;30989;52.078;21.014;2023-04-24T01:11:09;166823.16;;;11.69;66.17
45255;BME280;30989;52.078;21.014;2023-04-24T01:13:35;166809.75;;;11.64;66.43
45255;BME280;30989;52.078;21.014;2023-04-24T01:16:02;166819.13;;;11.68;65.66
45255;BME280;30989;52.078;21.014;2023-04-24T01:18:27;166820.47;;;11.68;65.71
45255;BME280;30989;52.078;21.014;2023-04-24T01:20:58;166813.78;;;11.66;65.28
45255;BME280;30989;52.078;21.014;2023-04-24T01:23:24;166812.44;;;11.65;65.79
45255;BME280;30989;52.078;21.014;2023-04-24T01:25:50;166813.78;;;11.66;65.99
45255;BME280;30989;52.078;21.014;2023-04-24T01:28:17;166828.50;;;11.71;66.43
45255;BME280;30989;52.078;21.014;2023-04-24T01:30:43;166807.06;;;11.63;66.37
45255;BME280;30989;52.078;21.014;2023-04-24T01:33:08;166817.78;;;11.67;65.88
45255;BME280;30989;52.078;21.014;2023-04-24T01:35:34;166815.13;;;11.66;66.29
45255;BME280;30989;52.078;21.014;2023-04-24T01:38:01;166807.06;;;11.63;66.39
45255;BME280;30989;52.078;21.014;2023-04-24T01:40:27;166800.38;;;11.60;66.68
45255;BME280;30989;52.078;21.014;2023-04-24T01:42:52;166797.69;;;11.59;67.25
45255;BME280;30989;52.078;21.014;2023-04-24T01:45:18;166778.94;;;11.52;67.01
45255;BME280;30989;52.078;21.014;2023-04-24T01:47:45;166780.28;;;11.53;67.41
45255;BME280;30989;52.078;21.014;2023-04-24T01:50:10;166780.28;;;11.53;67.99
45255;BME280;30989;52.078;21.014;2023-04-24T01:52:38;166764.19;;;11.47;68.52
45255;BME280;30989;52.078;21.014;2023-04-24T01:55:04;166753.47;;;11.43;68.09
45255;BME280;30989;52.078;21.014;2023-04-24T01:57:31;166744.09;;;11.39;68.78
45255;BME280;30989;52.078;21.014;2023-04-24T01:59:57;166717.28;;;11.29;68.75
45255;BME280;30989;52.078;21.014;2023-04-24T02:02:23;166714.59;;;11.28;69.01
45255;BME280;30989;52.078;21.014;2023-04-24T02:04:56;166703.88;;;11.24;69.42
45255;BME280;30989;52.078;21.014;2023-04-24T02:07:22;166691.84;;;11.19;68.69
45255;BME280;30989;52.078;21.014;2023-04-24T02:09:47;166665.03;;;11.09;69.24
45255;BME280;30989;52.078;21.014;2023-04-24T02:12:13;166650.28;;;11.04;69.25
45255;BME280;30989;52.078;21.014;2023-04-24T02:14:39;166644.94;;;11.02;69.53
45255;BME280;30989;52.078;21.014;2023-04-24T02:17:04;166620.81;;;10.92;69.34
45255;BME280;30989;52.078;21.014;2023-04-24T02:19:30;166611.44;;;10.89;69.73
45255;BME280;30989;52.078;21.014;2023-04-24T02:21:56;166579.28;;;10.77;70.32
45255;BME280;30989;52.078;21.014;2023-04-24T02:24:21;166577.97;;;10.76;70.53
45255;BME280;30989;52.078;21.014;2023-04-24T02:26:47;166560.53;;;10.70;71.08
45255;BME280;30989;52.078;21.014;2023-04-24T02:29:12;166548.47;;;10.65;70.79
45255;BME280;30989;52.078;21.014;2023-04-24T02:31:38;166533.75;;;10.59;71.39
45255;BME280;30989;52.078;21.014;2023-04-24T02:34:03;166525.72;;;10.56;71.53
45255;BME280;30989;52.078;21.014;2023-04-24T02:36:28;166515.00;;;10.52;71.03
45255;BME280;30989;52.078;21.014;2023-04-24T02:38:54;166501.59;;;10.47;71.76
45255;BME280;30989;52.078;21.014;2023-04-24T02:41:20;166493.56;;;10.44;72.22
45255;BME280;30989;52.078;21.014;2023-04-24T02:43:45;166478.78;;;10.39;72.43
45255;BME280;30989;52.078;21.014;2023-04-24T02:46:11;166461.38;;;10.32;72.75
45255;BME280;30989;52.078;21.014;2023-04-24T02:48:36;166439.97;;;10.24;72.53
45255;BME280;30989;52.078;21.014;2023-04-24T02:51:02;166437.28;;;10.23;73.32
45255;BME280;30989;52.078;21.014;2023-04-24T02:53:28;166423.84;;;10.18;73.46
45255;BME280;30989;52.078;21.014;2023-04-24T02:55:56;166410.44;;;10.13;73.72
45255;BME280;30989;52.078;21.014;2023-04-24T02:58:21;166395.72;;;10.07;73.79
45255;BME280;30989;52.078;21.014;2023-04-24T03:00:47;166386.34;;;10.03;73.85
45255;BME280;30989;52.078;21.014;2023-04-24T03:03:12;166364.94;;;9.95;74.27
45255;BME280;30989;52.078;21.014;2023-04-24T03:05:38;166364.94;;;9.95;74.13
45255;BME280;30989;52.078;21.014;2023-04-24T03:08:04;166348.88;;;9.89;74.70
45255;BME280;30989;52.078;21.014;2023-04-24T03:10:30;166327.44;;;9.81;74.31
45255;BME280;30989;52.078;21.014;2023-04-24T03:12:55;166314.06;;;9.76;74.86
45255;BME280;30989;52.078;21.014;2023-04-24T03:15:21;166327.44;;;9.81;75.38
45255;BME280;30989;52.078;21.014;2023-04-24T03:17:46;166311.38;;;9.75;75.59
45255;BME280;30989;52.078;21.014;2023-04-24T03:20:12;166299.34;;;9.70;75.51
45255;BME280;30989;52.078;21.014;2023-04-24T03:22:38;166284.59;;;9.65;75.60
45255;BME280;30989;52.078;21.014;2023-04-24T03:25:06;166276.56;;;9.62;76.01
45255;BME280;30989;52.078;21.014;2023-04-24T03:27:34;166276.56;;;9.62;76.07
45255;BME280;30989;52.078;21.014;2023-04-24T03:30:03;166267.22;;;9.58;75.86
45255;BME280;30989;52.078;21.014;2023-04-24T03:32:48;166272.56;;;9.60;76.06
45255;BME280;30989;52.078;21.014;2023-04-24T03:35:20;166269.88;;;9.59;76.53
45255;BME280;30989;52.078;21.014;2023-04-24T03:37:47;166272.56;;;9.60;76.77
45255;BME280;30989;52.078;21.014;2023-04-24T03:40:33;166271.22;;;9.60;77.35
45255;BME280;30989;52.078;21.014;2023-04-24T03:42:59;166271.22;;;9.60;77.19
45255;BME280;30989;52.078;21.014;2023-04-24T03:45:25;166277.91;;;9.62;77.18
45255;BME280;30989;52.078;21.014;2023-04-24T03:47:51;166269.88;;;9.59;77.19
45255;BME280;30989;52.078;21.014;2023-04-24T03:50:16;166292.63;;;9.68;76.99
45255;BME280;30989;52.078;21.014;2023-04-24T03:52:42;166303.34;;;9.72;77.27
45255;BME280;30989;52.078;21.014;2023-04-24T03:55:10;166292.63;;;9.68;76.72
45255;BME280;30989;52.078;21.014;2023-04-24T03:57:42;166322.09;;;9.79;77.13
45255;BME280;30989;52.078;21.014;2023-04-24T04:00:16;166314.06;;;9.76;76.61
45255;BME280;30989;52.078;21.014;2023-04-24T04:02:46;166342.16;;;9.87;76.32
45255;BME280;30989;52.078;21.014;2023-04-24T04:05:11;166347.53;;;9.89;76.71
45255;BME280;30989;52.078;21.014;2023-04-24T04:07:37;166359.56;;;9.93;76.60
45255;BME280;30989;52.078;21.014;2023-04-24T04:10:02;166339.50;;;9.86;76.78
45255;BME280;30989;52.078;21.014;2023-04-24T04:12:28;166376.97;;;10.00;76.54
45255;BME280;30989;52.078;21.014;2023-04-24T04:14:54;166390.38;;;10.05;75.94
45255;BME280;30989;52.078;21.014;2023-04-24T04:17:19;166391.72;;;10.06;76.40
45255;BME280;30989;52.078;21.014;2023-04-24T04:19:45;166397.06;;;10.08;76.48
45255;BME280;30989;52.078;21.014;2023-04-24T04:22:11;166406.44;;;10.11;76.21
45255;BME280;30989;52.078;21.014;2023-04-24T04:24:43;166422.50;;;10.17;76.41
45255;BME280;30989;52.078;21.014;2023-04-24T04:27:09;166429.25;;;10.20;76.15
45255;BME280;30989;52.078;21.014;2023-04-24T04:29:44;166426.53;;;10.19;75.59
45255;BME280;30989;52.078;21.014;2023-04-24T04:32:11;166464.06;;;10.33;75.81
45255;BME280;30989;52.078;21.014;2023-04-24T04:34:37;166462.72;;;10.32;75.32
45255;BME280;30989;52.078;21.014;2023-04-24T04:37:07;166470.75;;;10.36;75.62
45255;BME280;30989;52.078;21.014;2023-04-24T04:39:43;166474.78;;;10.37;74.98
45255;BME280;30989;52.078;21.014;2023-04-24T04:42:15;166480.13;;;10.39;75.25
45255;BME280;30989;52.078;21.014;2023-04-24T04:44:42;166469.41;;;10.35;74.75
45255;BME280;30989;52.078;21.014;2023-04-24T04:47:14;166490.91;;;10.43;75.09
45255;BME280;30989;52.078;21.014;2023-04-24T04:49:41;166501.59;;;10.47;75.28
45255;BME280;30989;52.078;21.014;2023-04-24T04:52:15;166517.69;;;10.53;76.00
45255;BME280;30989;52.078;21.014;2023-04-24T04:54:43;166529.75;;;10.58;76.13
45255;BME280;30989;52.078;21.014;2023-04-24T04:57:10;166557.88;;;10.69;76.08
45255;BME280;30989;52.078;21.014;2023-04-24T04:59:36;166545.81;;;10.64;76.01
45255;BME280;30989;52.078;21.014;2023-04-24T05:02:06;166567.25;;;10.72;75.57
45255;BME280;30989;52.078;21.014;2023-04-24T05:04:32;166577.97;;;10.76;75.53
45255;BME280;30989;52.078;21.014;2023-04-24T05:06:57;166600.72;;;10.85;75.73
45255;BME280;30989;52.078;21.014;2023-04-24T05:09:24;166602.06;;;10.85;75.58
45255;BME280;30989;52.078;21.014;2023-04-24T05:11:55;166627.53;;;10.95;75.85
45255;BME280;30989;52.078;21.014;2023-04-24T05:14:22;166643.59;;;11.01;75.72
45255;BME280;30989;52.078;21.014;2023-04-24T05:16:48;166662.34;;;11.08;74.97
45255;BME280;30989;52.078;21.014;2023-04-24T05:19:17;166667.72;;;11.10;75.04
45255;BME280;30989;52.078;21.014;2023-04-24T05:21:44;166702.56;;;11.23;74.39
45255;BME280;30989;52.078;21.014;2023-04-24T05:24:12;166713.28;;;11.27;74.63
45255;BME280;30989;52.078;21.014;2023-04-24T05:26:52;166761.50;;;11.46;74.07
45255;BME280;30989;52.078;21.014;2023-04-24T05:29:23;166799.03;;;11.60;74.78
45255;BME280;30989;52.078;21.014;2023-04-24T05:31:48;166839.25;;;11.75;74.26
45255;BME280;30989;52.078;21.014;2023-04-24T05:34:14;166883.53;;;11.92;73.74
45255;BME280;30989;52.078;21.014;2023-04-24T05:36:43;166926.41;;;12.08;73.33
45255;BME280;30989;52.078;21.014;2023-04-24T05:39:08;166962.63;;;12.22;72.80
45255;BME280;30989;52.078;21.014;2023-04-24T05:41:34;167010.88;;;12.40;72.46
45255;BME280;30989;52.078;21.014;2023-04-24T05:44:00;167043.06;;;12.52;71.46
45255;BME280;30989;52.078;21.014;2023-04-24T05:46:26;167084.63;;;12.68;71.12
45255;BME280;30989;52.078;21.014;2023-04-24T05:48:51;167120.84;;;12.82;70.49
45255;BME280;30989;52.078;21.014;2023-04-24T05:51:17;167134.25;;;12.87;70.22
45255;BME280;30989;52.078;21.014;2023-04-24T05:53:42;167201.31;;;13.12;70.12
45255;BME280;30989;52.078;21.014;2023-04-24T05:56:09;167221.50;;;13.20;69.99
45255;BME280;30989;52.078;21.014;2023-04-24T05:58:35;167238.94;;;13.27;69.86
45255;BME280;30989;52.078;21.014;2023-04-24T06:01:00;167264.44;;;13.36;69.47
45255;BME280;30989;52.078;21.014;2023-04-24T06:03:27;167292.59;;;13.47;69.43
45255;BME280;30989;52.078;21.014;2023-04-24T06:05:53;167332.88;;;13.62;69.09
45255;BME280;30989;52.078;21.014;2023-04-24T06:08:20;167367.75;;;13.75;68.78
45255;BME280;30989;52.078;21.014;2023-04-24T06:10:47;167391.91;;;13.84;68.49
45255;BME280;30989;52.078;21.014;2023-04-24T06:13:12;167422.78;;;13.96;68.29
45255;BME280;30989;52.078;21.014;2023-04-24T06:15:43;167453.66;;;14.08;67.98
45255;BME280;30989;52.078;21.014;2023-04-24T06:18:15;167477.81;;;14.17;67.93
45255;BME280;30989;52.078;21.014;2023-04-24T06:20:41;167497.94;;;14.25;67.72
45255;BME280;30989;52.078;21.014;2023-04-24T06:23:08;167518.06;;;14.32;67.41
45255;BME280;30989;52.078;21.014;2023-04-24T06:25:34;167544.97;;;14.42;67.47
45255;BME280;30989;52.078;21.014;2023-04-24T06:28:00;167573.16;;;14.53;67.37
45255;BME280;30989;52.078;21.014;2023-04-24T06:30:25;167598.69;;;14.63;67.35
45255;BME280;30989;52.078;21.014;2023-04-24T06:32:52;167625.53;;;14.73;66.92
45255;BME280;30989;52.078;21.014;2023-04-24T06:35:17;167652.38;;;14.83;66.91
45255;BME280;30989;52.078;21.014;2023-04-24T06:37:43;167680.59;;;14.94;66.61
45255;BME280;30989;52.078;21.014;2023-04-24T06:40:09;167724.91;;;15.10;66.05
45255;BME280;30989;52.078;21.014;2023-04-24T06:42:35;167762.50;;;15.25;65.73
45255;BME280;30989;52.078;21.014;2023-04-24T06:45:03;167801.47;;;15.39;65.62
45255;BME280;30989;52.078;21.014;2023-04-24T06:47:29;167845.78;;;15.56;65.46
45255;BME280;30989;52.078;21.014;2023-04-24T06:49:55;167884.84;;;15.71;65.42
45255;BME280;30989;52.078;21.014;2023-04-24T06:52:20;167931.88;;;15.89;64.79
45255;BME280;30989;52.078;21.014;2023-04-24T06:54:46;167960.09;;;15.99;64.33
45255;BME280;30989;52.078;21.014;2023-04-24T06:57:11;167981.59;;;16.07;64.24
45255;BME280;30989;52.078;21.014;2023-04-24T06:59:37;168023.25;;;16.23;63.59
45255;BME280;30989;52.078;21.014;2023-04-24T07:02:02;168060.88;;;16.37;63.38
45255;BME280;30989;52.078;21.014;2023-04-24T07:04:29;168128.09;;;16.63;63.30
45255;BME280;30989;52.078;21.014;2023-04-24T07:06:55;168168.47;;;16.78;61.69
45255;BME280;30989;52.078;21.014;2023-04-24T07:09:23;168212.84;;;16.95;62.01
45255;BME280;30989;52.078;21.014;2023-04-24T07:11:51;168257.22;;;17.12;61.55
45255;BME280;30989;52.078;21.014;2023-04-24T07:14:17;168298.91;;;17.27;61.13
45255;BME280;30989;52.078;21.014;2023-04-24T07:16:43;168321.75;;;17.36;61.00
45255;BME280;30989;52.078;21.014;2023-04-24T07:19:08;168345.97;;;17.45;60.41
45255;BME280;30989;52.078;21.014;2023-04-24T07:21:34;168421.34;;;17.74;59.67
45255;BME280;30989;52.078;21.014;2023-04-24T07:23:59;168483.22;;;17.97;59.37
45255;BME280;30989;52.078;21.014;2023-04-24T07:26:26;168512.81;;;18.08;58.49
45255;BME280;30989;52.078;21.014;2023-04-24T07:28:52;168567.97;;;18.29;58.30
45255;BME280;30989;52.078;21.014;2023-04-24T07:31:18;168608.31;;;18.44;56.88
45255;BME280;30989;52.078;21.014;2023-04-24T07:33:43;168662.22;;;18.64;56.28
45255;BME280;30989;52.078;21.014;2023-04-24T07:36:09;168705.28;;;18.81;54.39
45255;BME280;30989;52.078;21.014;2023-04-24T07:38:41;168744.31;;;18.95;55.51
45255;BME280;30989;52.078;21.014;2023-04-24T07:41:06;168790.06;;;19.13;55.17
45255;BME280;30989;52.078;21.014;2023-04-24T07:43:32;168819.69;;;19.24;54.92
45255;BME280;30989;52.078;21.014;2023-04-24T07:45:57;168841.22;;;19.32;54.01
45255;BME280;30989;52.078;21.014;2023-04-24T07:48:22;168868.16;;;19.42;54.01
45255;BME280;30989;52.078;21.014;2023-04-24T07:50:50;168897.81;;;19.53;53.78
45255;BME280;30989;52.078;21.014;2023-04-24T07:53:15;168930.13;;;19.66;54.22
45255;BME280;30989;52.078;21.014;2023-04-24T07:55:41;168951.69;;;19.74;53.22
45255;BME280;30989;52.078;21.014;2023-04-24T07:58:06;169005.53;;;19.94;53.12
45255;BME280;30989;52.078;21.014;2023-04-24T08:00:32;169039.22;;;20.07;53.02
45255;BME280;30989;52.078;21.014;2023-04-24T08:02:58;169072.88;;;20.19;52.34
45255;BME280;30989;52.078;21.014;2023-04-24T08:05:23;169080.97;;;20.22;52.11
45255;BME280;30989;52.078;21.014;2023-04-24T08:07:50;169103.84;;;20.31;50.94
45255;BME280;30989;52.078;21.014;2023-04-24T08:10:16;169083.66;;;20.23;51.05
45255;BME280;30989;52.078;21.014;2023-04-24T08:12:41;169071.53;;;20.19;51.16
45255;BME280;30989;52.078;21.014;2023-04-24T08:15:07;169043.25;;;20.08;50.97
45255;BME280;30989;52.078;21.014;2023-04-24T08:17:34;168989.38;;;19.88;50.21
45255;BME280;30989;52.078;21.014;2023-04-24T08:20:01;168930.13;;;19.66;51.17
45255;BME280;30989;52.078;21.014;2023-04-24T08:22:29;168904.56;;;19.56;51.34
45255;BME280;30989;52.078;21.014;2023-04-24T08:24:56;168882.97;;;19.48;51.78
45255;BME280;30989;52.078;21.014;2023-04-24T08:27:22;168878.91;;;19.46;51.86
45255;BME280;30989;52.078;21.014;2023-04-24T08:29:48;168876.22;;;19.45;51.41
45255;BME280;30989;52.078;21.014;2023-04-24T08:32:14;168872.19;;;19.44;51.34
45255;BME280;30989;52.078;21.014;2023-04-24T08:34:39;168857.38;;;19.38;50.77
45255;BME280;30989;52.078;21.014;2023-04-24T08:37:05;168916.66;;;19.60;51.00
45255;BME280;30989;52.078;21.014;2023-04-24T08:39:30;168943.59;;;19.71;50.89
45255;BME280;30989;52.078;21.014;2023-04-24T08:41:56;169070.19;;;20.18;50.58
45255;BME280;30989;52.078;21.014;2023-04-24T08:44:21;169175.31;;;20.58;49.19
45255;BME280;30989;52.078;21.014;2023-04-24T08:46:50;169269.66;;;20.94;49.17
45255;BME280;30989;52.078;21.014;2023-04-24T08:49:17;169335.69;;;21.18;48.99
45255;BME280;30989;52.078;21.014;2023-04-24T08:51:43;169364.03;;;21.29;48.39
45255;BME280;30989;52.078;21.014;2023-04-24T08:54:09;169384.25;;;21.37;49.19
45255;BME280;30989;52.078;21.014;2023-04-24T08:56:36;169381.56;;;21.36;48.02
45255;BME280;30989;52.078;21.014;2023-04-24T08:59:05;169411.19;;;21.47;49.04
45255;BME280;30989;52.078;21.014;2023-04-24T09:01:32;169436.81;;;21.57;48.42
45255;BME280;30989;52.078;21.014;2023-04-24T09:04:01;169452.97;;;21.63;44.88
45255;BME280;30989;52.078;21.014;2023-04-24T09:06:28;169416.59;;;21.49;42.11
45255;BME280;30989;52.078;21.014;2023-04-24T09:08:53;169385.59;;;21.37;43.80
45255;BME280;30989;52.078;21.014;2023-04-24T09:11:19;169408.50;;;21.46;46.15
45255;BME280;30989;52.078;21.014;2023-04-24T09:13:45;169430.06;;;21.54;46.83
45255;BME280;30989;52.078;21.014;2023-04-24T09:16:11;169428.72;;;21.53;46.98
45255;BME280;30989;52.078;21.014;2023-04-24T09:18:36;169479.94;;;21.73;46.24
45255;BME280;30989;52.078;21.014;2023-04-24T09:21:09;169515.00;;;21.86;45.52
45255;BME280;30989;52.078;21.014;2023-04-24T09:23:35;169539.25;;;21.95;45.74
45255;BME280;30989;52.078;21.014;2023-04-24T09:26:02;169578.41;;;22.10;44.74
45255;BME280;30989;52.078;21.014;2023-04-24T09:28:37;169605.38;;;22.20;42.22
45255;BME280;30989;52.078;21.014;2023-04-24T09:31:11;169626.94;;;22.28;43.92
45255;BME280;30989;52.078;21.014;2023-04-24T09:33:39;169668.75;;;22.44;44.62
45255;BME280;30989;52.078;21.014;2023-04-24T09:36:05;169671.44;;;22.45;44.03
45255;BME280;30989;52.078;21.014;2023-04-24T09:38:35;169609.41;;;22.22;43.08
45255;BME280;30989;52.078;21.014;2023-04-24T09:41:06;169544.66;;;21.97;43.58
45255;BME280;30989;52.078;21.014;2023-04-24T09:43:32;169496.13;;;21.79;43.34
45255;BME280;30989;52.078;21.014;2023-04-24T09:45:59;169417.94;;;21.49;43.08
45255;BME280;30989;52.078;21.014;2023-04-24T09:50:57;169355.94;;;21.26;44.15
45255;BME280;30989;52.078;21.014;2023-04-24T09:53:27;169361.34;;;21.28;42.63
45255;BME280;30989;52.078;21.014;2023-04-24T09:55:52;169310.09;;;21.09;41.80
45255;BME280;30989;52.078;21.014;2023-04-24T09:58:24;169277.75;;;20.97;43.03
45255;BME280;30989;52.078;21.014;2023-04-24T10:00:53;169257.53;;;20.89;43.36
45255;BME280;30989;52.078;21.014;2023-04-24T10:03:20;169288.53;;;21.01;42.67
45255;BME280;30989;52.078;21.014;2023-04-24T10:05:46;169330.28;;;21.16;43.11
45255;BME280;30989;52.078;21.014;2023-04-24T10:08:12;169373.47;;;21.33;43.36
45255;BME280;30989;52.078;21.014;2023-04-24T10:10:42;169422.00;;;21.51;42.71
45255;BME280;30989;52.078;21.014;2023-04-24T10:13:13;169457.03;;;21.64;42.50
45255;BME280;30989;52.078;21.014;2023-04-24T10:15:40;169523.09;;;21.89;42.45
45255;BME280;30989;52.078;21.014;2023-04-24T10:18:07;169591.88;;;22.15;43.06
45255;BME280;30989;52.078;21.014;2023-04-24T10:20:34;169610.75;;;22.22;43.16
45255;BME280;30989;52.078;21.014;2023-04-24T10:23:00;169640.44;;;22.33;43.04
45255;BME280;30989;52.078;21.014;2023-04-24T10:25:30;169649.88;;;22.37;42.94
45255;BME280;30989;52.078;21.014;2023-04-24T10:27:57;169706.50;;;22.58;43.41
45255;BME280;30989;52.078;21.014;2023-04-24T10:30:29;169811.75;;;22.98;44.06
45255;BME280;30989;52.078;21.014;2023-04-24T10:32:55;169834.66;;;23.06;40.46
45255;BME280;30989;52.078;21.014;2023-04-24T10:35:22;169782.06;;;22.87;40.50
45255;BME280;30989;52.078;21.014;2023-04-24T10:40:19;169879.19;;;23.23;41.89
45255;BME280;30989;52.078;21.014;2023-04-24T10:42:52;169985.81;;;23.63;39.25
45255;BME280;30989;52.078;21.014;2023-04-24T10:45:20;170038.44;;;23.83;38.94
45255;BME280;30989;52.078;21.014;2023-04-24T10:50:28;170109.97;;;24.10;39.11
45255;BME280;30989;52.078;21.014;2023-04-24T10:53:05;170211.22;;;24.48;39.09
45255;BME280;30989;52.078;21.014;2023-04-24T10:55:42;170319.22;;;24.89;38.79
45255;BME280;30989;52.078;21.014;2023-04-24T10:58:09;170416.50;;;25.25;37.54
45255;BME280;30989;52.078;21.014;2023-04-24T11:00:39;170515.06;;;25.62;37.44
45255;BME280;30989;52.078;21.014;2023-04-24T11:03:23;170556.97;;;25.78;36.90
45255;BME280;30989;52.078;21.014;2023-04-24T11:06:05;170565.09;;;25.81;36.21
45255;BME280;30989;52.078;21.014;2023-04-24T11:08:32;170561.03;;;25.80;37.54
45255;BME280;30989;52.078;21.014;2023-04-24T11:10:59;170542.13;;;25.73;36.39
45255;BME280;30989;52.078;21.014;2023-04-24T11:13:27;170469.16;;;25.45;36.55
45255;BME280;30989;52.078;21.014;2023-04-24T11:16:12;170397.59;;;25.18;35.72
45255;BME280;30989;52.078;21.014;2023-04-24T11:18:38;170450.25;;;25.38;36.43
45255;BME280;30989;52.078;21.014;2023-04-24T11:21:12;170621.88;;;26.02;36.89
45255;BME280;30989;52.078;21.014;2023-04-24T11:23:39;170832.69;;;26.82;36.64
45255;BME280;30989;52.078;21.014;2023-04-24T11:26:19;171051.72;;;27.64;34.38
45255;BME280;30989;52.078;21.014;2023-04-24T11:28:50;171154.47;;;28.03;33.32
45255;BME280;30989;52.078;21.014;2023-04-24T11:31:54;171238.34;;;28.34;33.10
45255;BME280;30989;52.078;21.014;2023-04-24T11:34:20;171272.16;;;28.47;32.70
45255;BME280;30989;52.078;21.014;2023-04-24T11:36:46;171393.91;;;28.93;32.42
45255;BME280;30989;52.078;21.014;2023-04-24T11:39:12;171544.13;;;29.49;32.01
45255;BME280;30989;52.078;21.014;2023-04-24T11:41:38;171698.41;;;30.07;30.86
45255;BME280;30989;52.078;21.014;2023-04-24T11:44:06;171841.91;;;30.61;30.79
45255;BME280;30989;52.078;21.014;2023-04-24T11:46:32;171969.16;;;31.08;30.74
45255;BME280;30989;52.078;21.014;2023-04-24T11:48:58;172089.75;;;31.54;30.38
45255;BME280;30989;52.078;21.014;2023-04-24T11:51:25;172199.47;;;31.95;29.46
45255;BME280;30989;52.078;21.014;2023-04-24T11:53:52;172307.88;;;32.35;29.58
45255;BME280;30989;52.078;21.014;2023-04-24T11:56:19;172389.16;;;32.66;29.08
45255;BME280;30989;52.078;21.014;2023-04-24T11:58:45;172431.19;;;32.82;27.77
45255;BME280;30989;52.078;21.014;2023-04-24T12:01:11;172492.16;;;33.05;27.06
45255;BME280;30989;52.078;21.014;2023-04-24T12:03:36;172516.53;;;33.14;25.91
45255;BME280;30989;52.078;21.014;2023-04-24T12:06:10;172569.44;;;33.34;27.23
45255;BME280;30989;52.078;21.014;2023-04-24T12:08:36;172589.75;;;33.41;27.12
45255;BME280;30989;52.078;21.014;2023-04-24T12:11:04;172614.16;;;33.50;26.88
45255;BME280;30989;52.078;21.014;2023-04-24T12:13:30;172570.78;;;33.34;26.31
45255;BME280;30989;52.078;21.014;2023-04-24T12:15:59;172606.00;;;33.47;26.58
45255;BME280;30989;52.078;21.014;2023-04-24T12:18:25;172648.03;;;33.63;26.13
45255;BME280;30989;52.078;21.014;2023-04-24T12:20:51;172527.38;;;33.18;26.32
45255;BME280;30989;52.078;21.014;2023-04-24T12:23:16;172272.63;;;32.22;25.82
45255;BME280;30989;52.078;21.014;2023-04-24T12:25:42;171701.13;;;30.08;25.22
45255;BME280;30989;52.078;21.014;2023-04-24T12:28:11;170961.09;;;27.30;27.16
45255;BME280;30989;52.078;21.014;2023-04-24T12:30:42;170296.28;;;24.80;30.32
45255;BME280;30989;52.078;21.014;2023-04-24T12:33:11;169861.66;;;23.17;33.28
45255;BME280;30989;52.078;21.014;2023-04-24T12:35:36;169612.09;;;22.23;34.89
45255;BME280;30989;52.078;21.014;2023-04-24T12:38:07;169662.00;;;22.41;35.58
45255;BME280;30989;52.078;21.014;2023-04-24T12:40:35;169803.66;;;22.95;35.17
45255;BME280;30989;52.078;21.014;2023-04-24T12:43:01;169976.38;;;23.60;34.42
45255;BME280;30989;52.078;21.014;2023-04-24T12:45:27;170080.28;;;23.99;33.76
45255;BME280;30989;52.078;21.014;2023-04-24T12:47:53;170138.28;;;24.21;33.34